sensor_id;sensor_type;location;lat;lon;timestamp;P1;durP1;ratioP1;P2;durP2;ratioP2
20124;SDS011;10223;50.862;4.360;2024-03-25T00:00:32;9.33;;;3.63;;
20124;SDS011;10223;50.862;4.360;2024-03-25T00:02:59;8.70;;;3.40;;
20124;SDS011;10223;50.862;4.360;2024-03-25T00:05:25;6.67;;;3.70;;
20124;SDS011;10223;50.862;4.360;2024-03-25T00:07:54;7.20;;;3.57;;
20124;SDS011;10223;50.862;4.360;2024-03-25T00:10:20;7.07;;;3.50;;
20124;SDS011;10223;50.862;4.360;2024-03-25T00:12:48;6.73;;;3.50;;
20124;SDS011;10223;50.862;4.360;2024-03-25T00:15:17;5.60;;;3.70;;
20124;SDS011;10223;50.862;4.360;2024-03-25T00:17:45;8.60;;;3.63;;
20124;SDS011;10223;50.862;4.360;2024-03-25T00:20:12;7.63;;;3.77;;
20124;SDS011;10223;50.862;4.360;2024-03-25T00:22:40;10.33;;;4.17;;
20124;SDS011;10223;50.862;4.360;2024-03-25T00:25:06;5.33;;;3.20;;
20124;SDS011;10223;50.862;4.360;2024-03-25T00:27:34;8.43;;;4.70;;
20124;SDS011;10223;50.862;4.360;2024-03-25T00:30:01;7.47;;;3.80;;
20124;SDS011;10223;50.862;4.360;2024-03-25T00:32:30;11.13;;;4.30;;
20124;SDS011;10223;50.862;4.360;2024-03-25T00:34:56;7.83;;;3.87;;
20124;SDS011;10223;50.862;4.360;2024-03-25T00:37:22;8.83;;;3.73;;
20124;SDS011;10223;50.862;4.360;2024-03-25T00:39:49;9.87;;;3.67;;
20124;SDS011;10223;50.862;4.360;2024-03-25T00:42:16;8.07;;;3.07;;
20124;SDS011;10223;50.862;4.360;2024-03-25T00:44:42;6.33;;;3.17;;
20124;SDS011;10223;50.862;4.360;2024-03-25T00:47:10;9.60;;;2.80;;
20124;SDS011;10223;50.862;4.360;2024-03-25T00:49:36;7.50;;;2.83;;
20124;SDS011;10223;50.862;4.360;2024-03-25T00:52:03;8.90;;;2.97;;
20124;SDS011;10223;50.862;4.360;2024-03-25T00:54:29;10.80;;;3.67;;
20124;SDS011;10223;50.862;4.360;2024-03-25T00:56:56;8.47;;;3.43;;
20124;SDS011;10223;50.862;4.360;2024-03-25T00:59:22;10.37;;;5.43;;
20124;SDS011;10223;50.862;4.360;2024-03-25T01:01:49;8.93;;;3.83;;
20124;SDS011;10223;50.862;4.360;2024-03-25T01:04:17;6.63;;;3.70;;
20124;SDS011;10223;50.862;4.360;2024-03-25T01:06:44;10.50;;;3.80;;
20124;SDS011;10223;50.862;4.360;2024-03-25T01:09:09;8.23;;;3.70;;
20124;SDS011;10223;50.862;4.360;2024-03-25T01:11:38;9.27;;;3.60;;
20124;SDS011;10223;50.862;4.360;2024-03-25T01:14:03;7.43;;;3.37;;
20124;SDS011;10223;50.862;4.360;2024-03-25T01:16:30;10.47;;;3.77;;
20124;SDS011;10223;50.862;4.360;2024-03-25T01:18:57;7.03;;;3.70;;
20124;SDS011;10223;50.862;4.360;2024-03-25T01:21:25;7.63;;;3.50;;
20124;SDS011;10223;50.862;4.360;2024-03-25T01:23:51;9.97;;;3.90;;
20124;SDS011;10223;50.862;4.360;2024-03-25T01:26:18;10.47;;;4.53;;
20124;SDS011;10223;50.862;4.360;2024-03-25T01:28:44;12.80;;;6.10;;
20124;SDS011;10223;50.862;4.360;2024-03-25T01:31:11;10.30;;;4.50;;
20124;SDS011;10223;50.862;4.360;2024-03-25T01:33:37;9.07;;;4.17;;
20124;SDS011;10223;50.862;4.360;2024-03-25T01:36:04;10.70;;;5.53;;
20124;SDS011;10223;50.862;4.360;2024-03-25T01:38:32;8.20;;;4.03;;
20124;SDS011;10223;50.862;4.360;2024-03-25T01:41:06;10.87;;;4.93;;
20124;SDS011;10223;50.862;4.360;2024-03-25T01:43:33;13.13;;;5.20;;
20124;SDS011;10223;50.862;4.360;2024-03-25T01:45:59;9.43;;;4.30;;
20124;SDS011;10223;50.862;4.360;2024-03-25T01:48:26;10.17;;;5.40;;
20124;SDS011;10223;50.862;4.360;2024-03-25T01:50:53;13.93;;;5.47;;
20124;SDS011;10223;50.862;4.360;2024-03-25T01:53:19;14.37;;;5.57;;
20124;SDS011;10223;50.862;4.360;2024-03-25T01:55:48;15.13;;;5.27;;
20124;SDS011;10223;50.862;4.360;2024-03-25T01:58:14;14.00;;;5.10;;
20124;SDS011;10223;50.862;4.360;2024-03-25T02:00:43;14.30;;;5.40;;
20124;SDS011;10223;50.862;4.360;2024-03-25T02:03:09;13.80;;;5.00;;
20124;SDS011;10223;50.862;4.360;2024-03-25T02:05:36;11.27;;;4.97;;
20124;SDS011;10223;50.862;4.360;2024-03-25T02:08:02;16.10;;;5.90;;
20124;SDS011;10223;50.862;4.360;2024-03-25T02:10:30;21.27;;;6.40;;
20124;SDS011;10223;50.862;4.360;2024-03-25T02:12:59;17.80;;;5.50;;
20124;SDS011;10223;50.862;4.360;2024-03-25T02:15:26;13.23;;;5.57;;
20124;SDS011;10223;50.862;4.360;2024-03-25T02:17:52;18.80;;;6.13;;
20124;SDS011;10223;50.862;4.360;2024-03-25T02:20:19;14.13;;;6.60;;
20124;SDS011;10223;50.862;4.360;2024-03-25T02:22:45;23.93;;;6.57;;
20124;SDS011;10223;50.862;4.360;2024-03-25T02:25:12;16.70;;;6.67;;
20124;SDS011;10223;50.862;4.360;2024-03-25T02:27:42;19.47;;;6.17;;
20124;SDS011;10223;50.862;4.360;2024-03-25T02:30:10;21.23;;;6.30;;
20124;SDS011;10223;50.862;4.360;2024-03-25T02:32:38;21.60;;;7.00;;
20124;SDS011;10223;50.862;4.360;2024-03-25T02:35:06;15.13;;;6.43;;
20124;SDS011;10223;50.862;4.360;2024-03-25T02:37:33;18.20;;;7.60;;
20124;SDS011;10223;50.862;4.360;2024-03-25T02:40:01;18.57;;;7.20;;
20124;SDS011;10223;50.862;4.360;2024-03-25T02:42:27;23.90;;;7.23;;
20124;SDS011;10223;50.862;4.360;2024-03-25T02:44:56;19.83;;;6.10;;
20124;SDS011;10223;50.862;4.360;2024-03-25T02:47:22;14.97;;;6.60;;
20124;SDS011;10223;50.862;4.360;2024-03-25T02:49:49;23.13;;;7.47;;
20124;SDS011;10223;50.862;4.360;2024-03-25T02:52:16;19.20;;;6.70;;
20124;SDS011;10223;50.862;4.360;2024-03-25T02:54:44;19.63;;;7.80;;
20124;SDS011;10223;50.862;4.360;2024-03-25T02:57:10;18.67;;;8.10;;
20124;SDS011;10223;50.862;4.360;2024-03-25T02:59:37;18.60;;;7.07;;
20124;SDS011;10223;50.862;4.360;2024-03-25T03:02:04;19.77;;;7.67;;
20124;SDS011;10223;50.862;4.360;2024-03-25T03:04:31;22.13;;;7.27;;
20124;SDS011;10223;50.862;4.360;2024-03-25T03:06:57;18.33;;;7.27;;
20124;SDS011;10223;50.862;4.360;2024-03-25T03:09:24;21.63;;;8.13;;
20124;SDS011;10223;50.862;4.360;2024-03-25T03:11:50;24.07;;;7.70;;
20124;SDS011;10223;50.862;4.360;2024-03-25T03:14:17;21.13;;;8.10;;
20124;SDS011;10223;50.862;4.360;2024-03-25T03:16:43;19.57;;;7.53;;
20124;SDS011;10223;50.862;4.360;2024-03-25T03:19:11;27.17;;;8.63;;
20124;SDS011;10223;50.862;4.360;2024-03-25T03:21:37;26.53;;;8.80;;
20124;SDS011;10223;50.862;4.360;2024-03-25T03:24:04;22.37;;;8.40;;
20124;SDS011;10223;50.862;4.360;2024-03-25T03:26:30;27.23;;;8.77;;
20124;SDS011;10223;50.862;4.360;2024-03-25T03:28:57;32.73;;;10.20;;
20124;SDS011;10223;50.862;4.360;2024-03-25T03:31:23;35.00;;;10.03;;
20124;SDS011;10223;50.862;4.360;2024-03-25T03:33:53;30.33;;;9.83;;
20124;SDS011;10223;50.862;4.360;2024-03-25T03:36:21;27.90;;;9.07;;
20124;SDS011;10223;50.862;4.360;2024-03-25T03:38:49;32.57;;;9.67;;
20124;SDS011;10223;50.862;4.360;2024-03-25T03:41:16;32.57;;;10.90;;
20124;SDS011;10223;50.862;4.360;2024-03-25T03:43:43;32.00;;;10.50;;
20124;SDS011;10223;50.862;4.360;2024-03-25T03:46:09;34.83;;;10.17;;
20124;SDS011;10223;50.862;4.360;2024-03-25T03:48:36;33.07;;;10.80;;
20124;SDS011;10223;50.862;4.360;2024-03-25T03:51:03;31.37;;;11.60;;
20124;SDS011;10223;50.862;4.360;2024-03-25T03:53:31;29.47;;;10.73;;
20124;SDS011;10223;50.862;4.360;2024-03-25T03:55:58;31.07;;;11.60;;
20124;SDS011;10223;50.862;4.360;2024-03-25T03:58:27;27.10;;;11.43;;
20124;SDS011;10223;50.862;4.360;2024-03-25T04:00:54;33.40;;;12.27;;
20124;SDS011;10223;50.862;4.360;2024-03-25T04:03:21;33.97;;;12.10;;
20124;SDS011;10223;50.862;4.360;2024-03-25T04:05:47;35.07;;;13.67;;
20124;SDS011;10223;50.862;4.360;2024-03-25T04:08:14;32.13;;;13.57;;
20124;SDS011;10223;50.862;4.360;2024-03-25T04:10:42;33.10;;;12.93;;
20124;SDS011;10223;50.862;4.360;2024-03-25T04:13:11;34.73;;;12.87;;
20124;SDS011;10223;50.862;4.360;2024-03-25T04:15:38;29.90;;;13.40;;
20124;SDS011;10223;50.862;4.360;2024-03-25T04:18:06;33.83;;;12.53;;
20124;SDS011;10223;50.862;4.360;2024-03-25T04:20:35;36.73;;;13.67;;
20124;SDS011;10223;50.862;4.360;2024-03-25T04:23:03;27.50;;;13.87;;
20124;SDS011;10223;50.862;4.360;2024-03-25T04:25:32;33.70;;;11.80;;
20124;SDS011;10223;50.862;4.360;2024-03-25T04:28:00;45.33;;;14.40;;
20124;SDS011;10223;50.862;4.360;2024-03-25T04:30:26;31.73;;;13.20;;
20124;SDS011;10223;50.862;4.360;2024-03-25T04:32:54;29.50;;;11.77;;
20124;SDS011;10223;50.862;4.360;2024-03-25T04:35:20;31.27;;;13.33;;
20124;SDS011;10223;50.862;4.360;2024-03-25T04:37:47;37.60;;;12.60;;
20124;SDS011;10223;50.862;4.360;2024-03-25T04:40:12;32.80;;;13.37;;
20124;SDS011;10223;50.862;4.360;2024-03-25T04:42:39;37.87;;;13.80;;
20124;SDS011;10223;50.862;4.360;2024-03-25T04:45:07;43.73;;;15.37;;
20124;SDS011;10223;50.862;4.360;2024-03-25T04:47:33;33.00;;;13.27;;
20124;SDS011;10223;50.862;4.360;2024-03-25T04:50:00;41.03;;;14.03;;
20124;SDS011;10223;50.862;4.360;2024-03-25T04:52:26;39.67;;;14.70;;
20124;SDS011;10223;50.862;4.360;2024-03-25T04:54:52;37.10;;;14.37;;
20124;SDS011;10223;50.862;4.360;2024-03-25T04:57:18;39.83;;;15.03;;
20124;SDS011;10223;50.862;4.360;2024-03-25T04:59:44;41.50;;;15.53;;
20124;SDS011;10223;50.862;4.360;2024-03-25T05:02:11;39.37;;;15.40;;
20124;SDS011;10223;50.862;4.360;2024-03-25T05:04:37;36.63;;;14.30;;
20124;SDS011;10223;50.862;4.360;2024-03-25T05:07:03;33.37;;;14.87;;
20124;SDS011;10223;50.862;4.360;2024-03-25T05:09:29;44.23;;;14.53;;
20124;SDS011;10223;50.862;4.360;2024-03-25T05:11:55;48.23;;;16.37;;
20124;SDS011;10223;50.862;4.360;2024-03-25T05:14:21;36.10;;;15.30;;
20124;SDS011;10223;50.862;4.360;2024-03-25T05:16:48;38.20;;;13.07;;
20124;SDS011;10223;50.862;4.360;2024-03-25T05:19:15;33.43;;;13.50;;
20124;SDS011;10223;50.862;4.360;2024-03-25T05:21:41;43.90;;;18.33;;
20124;SDS011;10223;50.862;4.360;2024-03-25T05:24:07;41.17;;;15.60;;
20124;SDS011;10223;50.862;4.360;2024-03-25T05:26:33;38.83;;;15.43;;
20124;SDS011;10223;50.862;4.360;2024-03-25T05:28:59;47.67;;;18.33;;
20124;SDS011;10223;50.862;4.360;2024-03-25T05:31:25;45.33;;;17.27;;
20124;SDS011;10223;50.862;4.360;2024-03-25T05:33:51;52.73;;;18.10;;
20124;SDS011;10223;50.862;4.360;2024-03-25T05:36:19;45.23;;;17.80;;
20124;SDS011;10223;50.862;4.360;2024-03-25T05:38:45;40.23;;;16.13;;
20124;SDS011;10223;50.862;4.360;2024-03-25T05:41:11;47.60;;;16.17;;
20124;SDS011;10223;50.862;4.360;2024-03-25T05:43:37;45.03;;;17.20;;
20124;SDS011;10223;50.862;4.360;2024-03-25T05:46:05;41.57;;;15.97;;
20124;SDS011;10223;50.862;4.360;2024-03-25T05:48:31;35.03;;;12.97;;
20124;SDS011;10223;50.862;4.360;2024-03-25T05:51:01;45.43;;;13.70;;
20124;SDS011;10223;50.862;4.360;2024-03-25T05:53:29;41.17;;;13.40;;
20124;SDS011;10223;50.862;4.360;2024-03-25T05:55:55;30.57;;;11.93;;
20124;SDS011;10223;50.862;4.360;2024-03-25T05:58:21;36.07;;;12.27;;
20124;SDS011;10223;50.862;4.360;2024-03-25T06:00:47;29.43;;;12.60;;
20124;SDS011;10223;50.862;4.360;2024-03-25T06:03:14;40.13;;;13.20;;
20124;SDS011;10223;50.862;4.360;2024-03-25T06:05:40;37.90;;;14.00;;
20124;SDS011;10223;50.862;4.360;2024-03-25T06:08:06;35.70;;;12.13;;
20124;SDS011;10223;50.862;4.360;2024-03-25T06:10:37;25.53;;;11.00;;
20124;SDS011;10223;50.862;4.360;2024-03-25T06:13:03;33.97;;;11.97;;
20124;SDS011;10223;50.862;4.360;2024-03-25T06:15:29;30.17;;;11.33;;
20124;SDS011;10223;50.862;4.360;2024-03-25T06:17:55;34.30;;;10.93;;
20124;SDS011;10223;50.862;4.360;2024-03-25T06:20:21;27.43;;;12.73;;
20124;SDS011;10223;50.862;4.360;2024-03-25T06:22:48;33.77;;;12.60;;
20124;SDS011;10223;50.862;4.360;2024-03-25T06:25:14;43.13;;;12.80;;
20124;SDS011;10223;50.862;4.360;2024-03-25T06:27:41;42.03;;;12.33;;
20124;SDS011;10223;50.862;4.360;2024-03-25T06:30:08;30.47;;;10.77;;
20124;SDS011;10223;50.862;4.360;2024-03-25T06:32:53;32.93;;;11.07;;
20124;SDS011;10223;50.862;4.360;2024-03-25T06:35:37;31.77;;;11.37;;
20124;SDS011;10223;50.862;4.360;2024-03-25T06:38:03;40.07;;;12.07;;
20124;SDS011;10223;50.862;4.360;2024-03-25T06:40:29;37.93;;;11.13;;
20124;SDS011;10223;50.862;4.360;2024-03-25T06:42:56;25.67;;;11.27;;
20124;SDS011;10223;50.862;4.360;2024-03-25T06:45:22;28.07;;;10.20;;
20124;SDS011;10223;50.862;4.360;2024-03-25T06:47:48;27.43;;;11.17;;
20124;SDS011;10223;50.862;4.360;2024-03-25T06:50:14;35.93;;;12.10;;
20124;SDS011;10223;50.862;4.360;2024-03-25T06:52:41;32.30;;;10.63;;
20124;SDS011;10223;50.862;4.360;2024-03-25T06:55:07;41.60;;;12.93;;
20124;SDS011;10223;50.862;4.360;2024-03-25T06:57:33;34.87;;;11.37;;
20124;SDS011;10223;50.862;4.360;2024-03-25T07:00:04;32.30;;;10.90;;
20124;SDS011;10223;50.862;4.360;2024-03-25T07:02:31;33.87;;;11.13;;
20124;SDS011;10223;50.862;4.360;2024-03-25T07:04:57;33.80;;;11.00;;
20124;SDS011;10223;50.862;4.360;2024-03-25T07:07:23;36.53;;;11.70;;
20124;SDS011;10223;50.862;4.360;2024-03-25T07:09:50;35.90;;;9.43;;
20124;SDS011;10223;50.862;4.360;2024-03-25T07:12:16;21.00;;;9.17;;
20124;SDS011;10223;50.862;4.360;2024-03-25T07:14:42;29.87;;;9.43;;
20124;SDS011;10223;50.862;4.360;2024-03-25T07:17:09;34.17;;;10.30;;
20124;SDS011;10223;50.862;4.360;2024-03-25T07:19:38;25.57;;;9.90;;
20124;SDS011;10223;50.862;4.360;2024-03-25T07:22:04;24.23;;;8.57;;
20124;SDS011;10223;50.862;4.360;2024-03-25T07:24:30;25.97;;;8.53;;
20124;SDS011;10223;50.862;4.360;2024-03-25T07:26:59;25.07;;;8.67;;
20124;SDS011;10223;50.862;4.360;2024-03-25T07:29:25;25.83;;;8.43;;
20124;SDS011;10223;50.862;4.360;2024-03-25T07:31:51;23.67;;;8.13;;
20124;SDS011;10223;50.862;4.360;2024-03-25T07:34:19;26.33;;;7.10;;
20124;SDS011;10223;50.862;4.360;2024-03-25T07:36:45;23.77;;;7.80;;
20124;SDS011;10223;50.862;4.360;2024-03-25T07:39:12;18.97;;;7.77;;
20124;SDS011;10223;50.862;4.360;2024-03-25T07:41:38;23.30;;;7.43;;
20124;SDS011;10223;50.862;4.360;2024-03-25T07:44:04;17.40;;;6.93;;
20124;SDS011;10223;50.862;4.360;2024-03-25T07:46:30;27.00;;;8.10;;
20124;SDS011;10223;50.862;4.360;2024-03-25T07:48:59;18.37;;;6.93;;
20124;SDS011;10223;50.862;4.360;2024-03-25T07:51:26;19.17;;;7.00;;
20124;SDS011;10223;50.862;4.360;2024-03-25T07:53:52;20.93;;;8.00;;
20124;SDS011;10223;50.862;4.360;2024-03-25T07:56:19;17.07;;;7.40;;
20124;SDS011;10223;50.862;4.360;2024-03-25T07:58:45;22.17;;;7.83;;
20124;SDS011;10223;50.862;4.360;2024-03-25T08:01:11;19.77;;;7.57;;
20124;SDS011;10223;50.862;4.360;2024-03-25T08:03:37;20.53;;;7.67;;
20124;SDS011;10223;50.862;4.360;2024-03-25T08:06:03;28.63;;;7.73;;
20124;SDS011;10223;50.862;4.360;2024-03-25T08:08:31;25.30;;;7.13;;
20124;SDS011;10223;50.862;4.360;2024-03-25T08:10:57;20.37;;;8.10;;
20124;SDS011;10223;50.862;4.360;2024-03-25T08:13:23;24.80;;;7.20;;
20124;SDS011;10223;50.862;4.360;2024-03-25T08:15:52;21.73;;;7.67;;
20124;SDS011;10223;50.862;4.360;2024-03-25T08:18:18;29.67;;;7.63;;
20124;SDS011;10223;50.862;4.360;2024-03-25T08:20:44;25.73;;;7.33;;
20124;SDS011;10223;50.862;4.360;2024-03-25T08:23:10;20.57;;;7.10;;
20124;SDS011;10223;50.862;4.360;2024-03-25T08:25:38;21.20;;;6.97;;
20124;SDS011;10223;50.862;4.360;2024-03-25T08:28:04;20.43;;;7.10;;
20124;SDS011;10223;50.862;4.360;2024-03-25T08:30:30;21.57;;;7.23;;
20124;SDS011;10223;50.862;4.360;2024-03-25T08:32:56;26.13;;;7.43;;
20124;SDS011;10223;50.862;4.360;2024-03-25T08:35:22;23.80;;;7.93;;
20124;SDS011;10223;50.862;4.360;2024-03-25T08:37:48;31.00;;;7.33;;
20124;SDS011;10223;50.862;4.360;2024-03-25T08:40:14;19.97;;;6.73;;
20124;SDS011;10223;50.862;4.360;2024-03-25T08:42:42;20.33;;;7.10;;
20124;SDS011;10223;50.862;4.360;2024-03-25T08:45:08;16.83;;;7.00;;
20124;SDS011;10223;50.862;4.360;2024-03-25T08:47:34;25.57;;;7.77;;
20124;SDS011;10223;50.862;4.360;2024-03-25T08:50:00;16.13;;;7.00;;
20124;SDS011;10223;50.862;4.360;2024-03-25T08:52:26;23.03;;;8.17;;
20124;SDS011;10223;50.862;4.360;2024-03-25T08:54:53;29.70;;;8.20;;
20124;SDS011;10223;50.862;4.360;2024-03-25T08:57:18;25.60;;;8.40;;
20124;SDS011;10223;50.862;4.360;2024-03-25T08:59:46;21.73;;;7.00;;
20124;SDS011;10223;50.862;4.360;2024-03-25T09:02:12;24.03;;;7.03;;
20124;SDS011;10223;50.862;4.360;2024-03-25T09:04:38;20.77;;;6.57;;
20124;SDS011;10223;50.862;4.360;2024-03-25T09:07:04;23.37;;;6.70;;
20124;SDS011;10223;50.862;4.360;2024-03-25T09:09:30;18.27;;;6.87;;
20124;SDS011;10223;50.862;4.360;2024-03-25T09:12:16;15.67;;;6.70;;
20124;SDS011;10223;50.862;4.360;2024-03-25T09:14:42;19.43;;;6.77;;
20124;SDS011;10223;50.862;4.360;2024-03-25T09:17:09;19.07;;;6.23;;
20124;SDS011;10223;50.862;4.360;2024-03-25T09:19:35;19.50;;;6.63;;
20124;SDS011;10223;50.862;4.360;2024-03-25T09:22:01;17.70;;;6.37;;
20124;SDS011;10223;50.862;4.360;2024-03-25T09:24:27;21.33;;;7.57;;
20124;SDS011;10223;50.862;4.360;2024-03-25T09:26:53;20.03;;;6.90;;
20124;SDS011;10223;50.862;4.360;2024-03-25T09:29:19;18.87;;;7.00;;
20124;SDS011;10223;50.862;4.360;2024-03-25T09:31:45;16.73;;;5.47;;
20124;SDS011;10223;50.862;4.360;2024-03-25T09:34:12;14.70;;;5.60;;
20124;SDS011;10223;50.862;4.360;2024-03-25T09:36:38;14.27;;;5.80;;
20124;SDS011;10223;50.862;4.360;2024-03-25T09:39:04;13.33;;;5.70;;
20124;SDS011;10223;50.862;4.360;2024-03-25T09:41:30;15.43;;;5.90;;
20124;SDS011;10223;50.862;4.360;2024-03-25T09:44:00;13.80;;;5.30;;
20124;SDS011;10223;50.862;4.360;2024-03-25T09:46:26;16.90;;;6.13;;
20124;SDS011;10223;50.862;4.360;2024-03-25T09:48:52;14.77;;;6.57;;
20124;SDS011;10223;50.862;4.360;2024-03-25T09:51:20;14.73;;;5.87;;
20124;SDS011;10223;50.862;4.360;2024-03-25T09:53:46;15.37;;;6.90;;
20124;SDS011;10223;50.862;4.360;2024-03-25T09:56:12;19.53;;;5.37;;
20124;SDS011;10223;50.862;4.360;2024-03-25T09:58:39;25.67;;;6.23;;
20124;SDS011;10223;50.862;4.360;2024-03-25T10:01:05;11.17;;;5.00;;
20124;SDS011;10223;50.862;4.360;2024-03-25T10:03:32;14.03;;;5.13;;
20124;SDS011;10223;50.862;4.360;2024-03-25T10:05:58;12.37;;;4.87;;
20124;SDS011;10223;50.862;4.360;2024-03-25T10:08:25;13.23;;;4.80;;
20124;SDS011;10223;50.862;4.360;2024-03-25T10:10:51;12.43;;;5.33;;
20124;SDS011;10223;50.862;4.360;2024-03-25T10:13:17;12.17;;;4.97;;
20124;SDS011;10223;50.862;4.360;2024-03-25T10:15:43;12.53;;;4.63;;
20124;SDS011;10223;50.862;4.360;2024-03-25T10:18:12;15.03;;;4.90;;
20124;SDS011;10223;50.862;4.360;2024-03-25T10:20:39;13.60;;;5.17;;
20124;SDS011;10223;50.862;4.360;2024-03-25T10:23:13;14.83;;;4.60;;
20124;SDS011;10223;50.862;4.360;2024-03-25T10:25:40;11.57;;;3.40;;
20124;SDS011;10223;50.862;4.360;2024-03-25T10:28:08;9.93;;;3.70;;
20124;SDS011;10223;50.862;4.360;2024-03-25T10:30:34;15.33;;;3.70;;
20124;SDS011;10223;50.862;4.360;2024-03-25T10:33:00;7.93;;;3.53;;
20124;SDS011;10223;50.862;4.360;2024-03-25T10:35:27;8.30;;;3.90;;
20124;SDS011;10223;50.862;4.360;2024-03-25T10:37:55;7.17;;;3.57;;
20124;SDS011;10223;50.862;4.360;2024-03-25T10:40:24;7.20;;;3.70;;
20124;SDS011;10223;50.862;4.360;2024-03-25T10:42:55;8.60;;;3.80;;
20124;SDS011;10223;50.862;4.360;2024-03-25T10:45:25;9.77;;;3.57;;
20124;SDS011;10223;50.862;4.360;2024-03-25T10:47:54;8.07;;;3.10;;
20124;SDS011;10223;50.862;4.360;2024-03-25T10:50:23;10.80;;;3.43;;
20124;SDS011;10223;50.862;4.360;2024-03-25T10:52:57;10.53;;;2.43;;
20124;SDS011;10223;50.862;4.360;2024-03-25T10:55:24;14.87;;;6.23;;
20124;SDS011;10223;50.862;4.360;2024-03-25T10:57:52;8.97;;;2.70;;
20124;SDS011;10223;50.862;4.360;2024-03-25T11:00:21;8.23;;;2.90;;
20124;SDS011;10223;50.862;4.360;2024-03-25T11:02:48;13.47;;;4.13;;
20124;SDS011;10223;50.862;4.360;2024-03-25T11:05:16;6.33;;;2.50;;
20124;SDS011;10223;50.862;4.360;2024-03-25T11:07:42;6.80;;;2.27;;
20124;SDS011;10223;50.862;4.360;2024-03-25T11:10:08;5.57;;;2.40;;
20124;SDS011;10223;50.862;4.360;2024-03-25T11:12:35;7.30;;;2.63;;
20124;SDS011;10223;50.862;4.360;2024-03-25T11:15:04;8.07;;;2.70;;
20124;SDS011;10223;50.862;4.360;2024-03-25T11:17:32;7.10;;;2.83;;
20124;SDS011;10223;50.862;4.360;2024-03-25T11:20:06;5.27;;;2.40;;
20124;SDS011;10223;50.862;4.360;2024-03-25T11:22:33;9.30;;;2.83;;
20124;SDS011;10223;50.862;4.360;2024-03-25T11:25:04;7.13;;;2.50;;
20124;SDS011;10223;50.862;4.360;2024-03-25T11:27:32;10.67;;;2.30;;
20124;SDS011;10223;50.862;4.360;2024-03-25T11:29:59;5.90;;;2.43;;
20124;SDS011;10223;50.862;4.360;2024-03-25T11:32:26;9.70;;;3.30;;
20124;SDS011;10223;50.862;4.360;2024-03-25T11:34:53;6.07;;;2.13;;
20124;SDS011;10223;50.862;4.360;2024-03-25T11:37:19;8.63;;;3.23;;
20124;SDS011;10223;50.862;4.360;2024-03-25T11:39:45;6.43;;;2.70;;
20124;SDS011;10223;50.862;4.360;2024-03-25T11:42:12;6.67;;;2.40;;
20124;SDS011;10223;50.862;4.360;2024-03-25T11:44:38;5.03;;;2.30;;
20124;SDS011;10223;50.862;4.360;2024-03-25T11:47:04;8.50;;;2.57;;
20124;SDS011;10223;50.862;4.360;2024-03-25T11:49:33;6.73;;;2.70;;
20124;SDS011;10223;50.862;4.360;2024-03-25T11:52:02;8.57;;;2.67;;
20124;SDS011;10223;50.862;4.360;2024-03-25T11:54:28;7.00;;;2.30;;
20124;SDS011;10223;50.862;4.360;2024-03-25T11:56:54;10.60;;;4.23;;
20124;SDS011;10223;50.862;4.360;2024-03-25T11:59:20;4.33;;;2.10;;
20124;SDS011;10223;50.862;4.360;2024-03-25T12:01:46;5.97;;;2.73;;
20124;SDS011;10223;50.862;4.360;2024-03-25T12:04:15;4.73;;;1.90;;
20124;SDS011;10223;50.862;4.360;2024-03-25T12:06:43;9.60;;;2.40;;
20124;SDS011;10223;50.862;4.360;2024-03-25T12:09:10;6.60;;;2.77;;
20124;SDS011;10223;50.862;4.360;2024-03-25T12:11:54;6.60;;;2.80;;
20124;SDS011;10223;50.862;4.360;2024-03-25T12:14:20;12.57;;;3.00;;
20124;SDS011;10223;50.862;4.360;2024-03-25T12:16:46;9.60;;;2.73;;
20124;SDS011;10223;50.862;4.360;2024-03-25T12:19:13;6.50;;;2.60;;
20124;SDS011;10223;50.862;4.360;2024-03-25T12:21:40;11.97;;;3.20;;
20124;SDS011;10223;50.862;4.360;2024-03-25T12:24:08;6.27;;;2.73;;
20124;SDS011;10223;50.862;4.360;2024-03-25T12:26:34;7.80;;;2.80;;
20124;SDS011;10223;50.862;4.360;2024-03-25T12:29:00;5.10;;;2.53;;
20124;SDS011;10223;50.862;4.360;2024-03-25T12:31:26;5.87;;;2.10;;
20124;SDS011;10223;50.862;4.360;2024-03-25T12:33:52;4.80;;;1.90;;
20124;SDS011;10223;50.862;4.360;2024-03-25T12:36:19;5.10;;;2.10;;
20124;SDS011;10223;50.862;4.360;2024-03-25T12:38:53;4.97;;;2.80;;
20124;SDS011;10223;50.862;4.360;2024-03-25T12:41:21;5.57;;;2.10;;
20124;SDS011;10223;50.862;4.360;2024-03-25T12:43:49;10.33;;;4.40;;
20124;SDS011;10223;50.862;4.360;2024-03-25T12:46:15;7.40;;;2.13;;
20124;SDS011;10223;50.862;4.360;2024-03-25T12:48:41;5.17;;;1.87;;
20124;SDS011;10223;50.862;4.360;2024-03-25T12:51:11;4.17;;;2.00;;
20124;SDS011;10223;50.862;4.360;2024-03-25T12:53:38;5.87;;;1.90;;
20124;SDS011;10223;50.862;4.360;2024-03-25T12:56:04;3.70;;;2.10;;
20124;SDS011;10223;50.862;4.360;2024-03-25T12:58:32;8.53;;;2.40;;
20124;SDS011;10223;50.862;4.360;2024-03-25T13:00:58;4.90;;;2.10;;
20124;SDS011;10223;50.862;4.360;2024-03-25T13:03:24;4.70;;;1.83;;
20124;SDS011;10223;50.862;4.360;2024-03-25T13:05:50;4.70;;;1.53;;
20124;SDS011;10223;50.862;4.360;2024-03-25T13:08:16;3.80;;;1.53;;
20124;SDS011;10223;50.862;4.360;2024-03-25T13:10:45;4.23;;;1.60;;
20124;SDS011;10223;50.862;4.360;2024-03-25T13:13:11;6.77;;;1.70;;
20124;SDS011;10223;50.862;4.360;2024-03-25T13:15:38;8.83;;;2.23;;
20124;SDS011;10223;50.862;4.360;2024-03-25T13:18:05;3.50;;;1.60;;
20124;SDS011;10223;50.862;4.360;2024-03-25T13:20:31;6.87;;;1.90;;
20124;SDS011;10223;50.862;4.360;2024-03-25T13:22:57;5.63;;;2.00;;
20124;SDS011;10223;50.862;4.360;2024-03-25T13:25:23;2.40;;;1.00;;
20124;SDS011;10223;50.862;4.360;2024-03-25T13:27:49;4.83;;;2.17;;
20124;SDS011;10223;50.862;4.360;2024-03-25T13:30:15;1.73;;;1.10;;
20124;SDS011;10223;50.862;4.360;2024-03-25T13:32:42;2.70;;;1.08;;
20124;SDS011;10223;50.862;4.360;2024-03-25T13:35:10;5.00;;;1.50;;
20124;SDS011;10223;50.862;4.360;2024-03-25T13:37:36;5.82;;;1.70;;
20124;SDS011;10223;50.862;4.360;2024-03-25T13:40:02;3.22;;;1.30;;
20124;SDS011;10223;50.862;4.360;2024-03-25T13:42:29;14.23;;;2.03;;
20124;SDS011;10223;50.862;4.360;2024-03-25T13:44:55;4.20;;;1.43;;
20124;SDS011;10223;50.862;4.360;2024-03-25T13:47:21;5.35;;;1.48;;
20124;SDS011;10223;50.862;4.360;2024-03-25T13:49:48;5.50;;;1.13;;
20124;SDS011;10223;50.862;4.360;2024-03-25T13:52:14;2.25;;;1.10;;
20124;SDS011;10223;50.862;4.360;2024-03-25T13:54:40;5.85;;;1.88;;
20124;SDS011;10223;50.862;4.360;2024-03-25T13:57:06;2.80;;;1.20;;
20124;SDS011;10223;50.862;4.360;2024-03-25T13:59:32;5.93;;;2.43;;
20124;SDS011;10223;50.862;4.360;2024-03-25T14:01:58;6.93;;;2.50;;
20124;SDS011;10223;50.862;4.360;2024-03-25T14:04:24;4.03;;;1.37;;
20124;SDS011;10223;50.862;4.360;2024-03-25T14:06:51;3.20;;;1.57;;
20124;SDS011;10223;50.862;4.360;2024-03-25T14:09:26;5.30;;;1.93;;
20124;SDS011;10223;50.862;4.360;2024-03-25T14:11:53;4.43;;;1.50;;
20124;SDS011;10223;50.862;4.360;2024-03-25T14:14:19;5.78;;;1.60;;
20124;SDS011;10223;50.862;4.360;2024-03-25T14:16:45;7.85;;;1.60;;
20124;SDS011;10223;50.862;4.360;2024-03-25T14:19:11;4.85;;;1.60;;
20124;SDS011;10223;50.862;4.360;2024-03-25T14:21:37;4.50;;;1.90;;
20124;SDS011;10223;50.862;4.360;2024-03-25T14:24:05;3.83;;;1.55;;
20124;SDS011;10223;50.862;4.360;2024-03-25T14:26:32;9.32;;;4.20;;
20124;SDS011;10223;50.862;4.360;2024-03-25T14:28:58;10.70;;;2.10;;
20124;SDS011;10223;50.862;4.360;2024-03-25T14:31:25;4.03;;;1.35;;
20124;SDS011;10223;50.862;4.360;2024-03-25T14:33:51;3.75;;;1.35;;